Pacific Princess — ZCDS3 — position and weather

sailwx.info

Track history (hours):
 
Tides and Currents Weather Stations Pressure Air Temp Water Temp Dewpoint Dewpoint Depression Visibility Wind Speed Wind Dir Waves Ship Positions

Pacific Princess (Bermuda)

Last reported at 2016-Aug-28 19:33 UTC. Time now 2016-Aug-30 22:36 UTC.
Position N 51°37' E 002°22'.

Length 180.5 m; beam 25.6 m; draft 6 m.

Type: Passenger vessel. MMSI: 310504000.

Date/timePositionNaut miles runAvg speedWind from/ knotsBaromVisibWave heightAir tempDewpointWater temp
2016-Aug-28 19:33N 51°37' E 002°22'1817.8
2016-Aug-28 18:33N 51°23' E 002°03'1717.4
2016-Aug-28 17:33N 51°10' E 001°45'1212.0
2016-Aug-28 16:33N 51°07' E 001°27'4 4.3
2016-Aug-28 15:31N 51°07' E 001°19'0 0.0
2016-Aug-28 14:28N 51°07' E 001°19'0 0.0
2016-Aug-28 13:31N 51°07' E 001°19'0 0.0
2016-Aug-28 12:31N 51°07' E 001°19'0 0.0
2016-Aug-28 11:31N 51°07' E 001°19'0 0.0
2016-Aug-28 10:28N 51°07' E 001°19'0 0.0
2016-Aug-28 09:31N 51°07' E 001°19'0 0.0
2016-Aug-28 08:16N 51°07' E 001°19'0 0.0
2016-Aug-28 07:31N 51°07' E 001°19'0 0.0
2016-Aug-28 06:07N 51°07' E 001°19'0 0.0
2016-Aug-28 05:31N 51°07' E 001°19'0 0.0
2016-Aug-28 04:31N 51°07' E 001°19'1 1.1
2016-Aug-28 03:23N 51°07' E 001°21'1011.8
2016-Aug-28 02:34N 51°10' E 001°36'1312.6
2016-Aug-28 01:34N 51°20' E 001°49'1010.3
2016-Aug-28 00:33N 51°29' E 001°56'1211.6
2016-Aug-27 23:32N 51°39' E 002°06'1312.1
2016-Aug-27 22:30N 51°51' E 002°15'1511.7
2016-Aug-27 21:15N 52°05' E 002°20'3812.7
2016-Aug-27 18:14N 52°43' E 002°23'1116.4
2016-Aug-27 17:33N 52°54' E 002°19'1717.1
2016-Aug-27 16:33N 53°05' E 001°57'1716.9
2016-Aug-27 15:33N 53°10' E 001°30'1716.8
2016-Aug-27 14:32N 53°22' E 001°09'1817.8
2016-Aug-27 13:33N 53°36' E 000°53'1817.9
2016-Aug-27 12:33N 53°51' E 000°35'1818.0
2016-Aug-27 11:33N 54°06' E 000°18'1818.1
2016-Aug-27 10:34N 54°21' E 000°01'1818.0
2016-Aug-27 09:33N 54°36' W 000°14'1917.6
2016-Aug-27 08:27N 54°53' W 000°31'1517.1
2016-Aug-27 07:33N 55°06' W 000°45'1717.3
2016-Aug-27 06:33N 55°21' W 001°00'5616.6
2016-Aug-27 03:12N 55°60' W 002°12'1117.0
2016-Aug-27 02:33N 56°04' W 002°29'1716.9
2016-Aug-27 01:33N 56°03' W 002°60'14 0.7
2016-Aug-26 04:11N 56°00' W 003°24'711.1
2016-Aug-26 03:33N 56°02' W 003°13'1312.7
2016-Aug-26 02:33N 56°05' W 002°50'1312.7
2016-Aug-26 01:33N 56°09' W 002°28'1110.9
2016-Aug-26 00:33N 56°17' W 002°15'1312.8
2016-Aug-25 23:33N 56°28' W 002°06'1312.8
2016-Aug-25 22:33N 56°40' W 001°55'24313.5
2016-Aug-25 04:33N 60°10' E 001°58'296 8.9
2016-Aug-23 19:10N 63°36' E 009°28'913.8
2016-Aug-23 18:32N 63°38' E 009°48'1414.7
2016-Aug-23 17:33N 63°29' E 010°12'6 5.5
2016-Aug-23 16:31N 63°26' E 010°24'0 0.0
2016-Aug-23 15:31N 63°26' E 010°24'0 0.0
2016-Aug-23 14:28N 63°26' E 010°24'0 0.0
2016-Aug-23 13:31N 63°26' E 010°24'0 0.0
2016-Aug-23 12:31N 63°26' E 010°24'0 0.0
2016-Aug-23 11:31N 63°26' E 010°24'0 0.0
2016-Aug-23 10:31N 63°26' E 010°24'0 0.0
2016-Aug-23 09:31N 63°26' E 010°24'0 0.0
2016-Aug-23 08:31N 63°26' E 010°24'0 0.3
2016-Aug-23 07:33N 63°26' E 010°23'1413.5
2016-Aug-23 06:33N 63°30' E 009°54'1312.5
2016-Aug-23 05:33N 63°38' E 009°31'9 9.3
2016-Aug-23 04:33N 63°44' E 009°17'  
2016-Aug-20 11:22N 73°56' E 018°56'1214.6
2016-Aug-20 10:33N 74°05' E 018°29'1514.9
2016-Aug-20 09:33N 74°17' E 017°57'1616.4
2016-Aug-20 08:34N 74°32' E 017°32'  
Track history (hours):
 
Tides and Currents Weather Stations Pressure Air Temp Water Temp Dewpoint Dewpoint Depression Visibility Wind Speed Wind Dir Waves Ship Positions

Pacific Princess (Bermuda)

Last reported at 2016-Aug-28 19:33 UTC. Time now 2016-Aug-30 22:36 UTC.
Position N 51°37' E 002°22'.

Length 180.5 m; beam 25.6 m; draft 6 m.

Type: Passenger vessel. MMSI: 310504000.

Date/timePositionNaut miles runAvg speedWind from/ knotsBaromVisibWave heightAir tempDewpointWater temp
2016-Aug-28 19:33N 51°37' E 002°22'1817.8
2016-Aug-28 18:33N 51°23' E 002°03'1717.4
2016-Aug-28 17:33N 51°10' E 001°45'1212.0
2016-Aug-28 16:33N 51°07' E 001°27'4 4.3
2016-Aug-28 15:31N 51°07' E 001°19'0 0.0
2016-Aug-28 14:28N 51°07' E 001°19'0 0.0
2016-Aug-28 13:31N 51°07' E 001°19'0 0.0
2016-Aug-28 12:31N 51°07' E 001°19'0 0.0
2016-Aug-28 11:31N 51°07' E 001°19'0 0.0
2016-Aug-28 10:28N 51°07' E 001°19'0 0.0
2016-Aug-28 09:31N 51°07' E 001°19'0 0.0
2016-Aug-28 08:16N 51°07' E 001°19'0 0.0
2016-Aug-28 07:31N 51°07' E 001°19'0 0.0
2016-Aug-28 06:07N 51°07' E 001°19'0 0.0
2016-Aug-28 05:31N 51°07' E 001°19'0 0.0
2016-Aug-28 04:31N 51°07' E 001°19'1 1.1
2016-Aug-28 03:23N 51°07' E 001°21'1011.8
2016-Aug-28 02:34N 51°10' E 001°36'1312.6
2016-Aug-28 01:34N 51°20' E 001°49'1010.3
2016-Aug-28 00:33N 51°29' E 001°56'1211.6
2016-Aug-27 23:32N 51°39' E 002°06'1312.1
2016-Aug-27 22:30N 51°51' E 002°15'1511.7
2016-Aug-27 21:15N 52°05' E 002°20'3812.7
2016-Aug-27 18:14N 52°43' E 002°23'1116.4
2016-Aug-27 17:33N 52°54' E 002°19'1717.1
2016-Aug-27 16:33N 53°05' E 001°57'1716.9
2016-Aug-27 15:33N 53°10' E 001°30'1716.8
2016-Aug-27 14:32N 53°22' E 001°09'1817.8
2016-Aug-27 13:33N 53°36' E 000°53'1817.9
2016-Aug-27 12:33N 53°51' E 000°35'1818.0
2016-Aug-27 11:33N 54°06' E 000°18'1818.1
2016-Aug-27 10:34N 54°21' E 000°01'1818.0
2016-Aug-27 09:33N 54°36' W 000°14'1917.6
2016-Aug-27 08:27N 54°53' W 000°31'1517.1
2016-Aug-27 07:33N 55°06' W 000°45'1717.3
2016-Aug-27 06:33N 55°21' W 001°00'5616.6
2016-Aug-27 03:12N 55°60' W 002°12'1117.0
2016-Aug-27 02:33N 56°04' W 002°29'1716.9
2016-Aug-27 01:33N 56°03' W 002°60'14 0.7
2016-Aug-26 04:11N 56°00' W 003°24'711.1
2016-Aug-26 03:33N 56°02' W 003°13'1312.7
2016-Aug-26 02:33N 56°05' W 002°50'1312.7
2016-Aug-26 01:33N 56°09' W 002°28'1110.9
2016-Aug-26 00:33N 56°17' W 002°15'1312.8
2016-Aug-25 23:33N 56°28' W 002°06'1312.8
2016-Aug-25 22:33N 56°40' W 001°55'24313.5
2016-Aug-25 04:33N 60°10' E 001°58'296 8.9
2016-Aug-23 19:10N 63°36' E 009°28'913.8
2016-Aug-23 18:32N 63°38' E 009°48'1414.7
2016-Aug-23 17:33N 63°29' E 010°12'6 5.5
2016-Aug-23 16:31N 63°26' E 010°24'0 0.0
2016-Aug-23 15:31N 63°26' E 010°24'0 0.0
2016-Aug-23 14:28N 63°26' E 010°24'0 0.0
2016-Aug-23 13:31N 63°26' E 010°24'0 0.0
2016-Aug-23 12:31N 63°26' E 010°24'0 0.0
2016-Aug-23 11:31N 63°26' E 010°24'0 0.0
2016-Aug-23 10:31N 63°26' E 010°24'0 0.0
2016-Aug-23 09:31N 63°26' E 010°24'0 0.0
2016-Aug-23 08:31N 63°26' E 010°24'0 0.3
2016-Aug-23 07:33N 63°26' E 010°23'1413.5
2016-Aug-23 06:33N 63°30' E 009°54'1312.5
2016-Aug-23 05:33N 63°38' E 009°31'9 9.3
2016-Aug-23 04:33N 63°44' E 009°17'  
2016-Aug-20 11:22N 73°56' E 018°56'1214.6
2016-Aug-20 10:33N 74°05' E 018°29'1514.9
2016-Aug-20 09:33N 74°17' E 017°57'1616.4
2016-Aug-20 08:34N 74°32' E 017°32'  

Dump ship's entire track history